EKYT

Aalborg Airport

Aalborg, Denmark
METAR EKYT 232320Z AUTO 22017KT 2800NDV RA FEW004/// BKN007/// BKN010/// 07/07 Q1001
Observed Flight Rules
Jan-23 @ 23:20 UTC (20 minutes ago)
Wind Clouds Conditions
220° at 17 knots
  • Few at 400' AGL
  • Broken at 700' AGL
  • Broken at 1,000' AGL
  • Rain
Temperatures Readings
Current 7°C / 45°F
Dewpoint 7°C / 45°F
Humidity 100%
Altimeter 29.56" Hg
Pressure 1001 hPa
Elevation 3
METAR EKYT 232320Z AUTO 22017KT 2800NDV RA FEW004/// BKN007/// BKN010/// 07/07 Q1001
Observed Flight Rules
Jan-23 @ 23:20 UTC
(20 minutes ago)
Wind
220° at 17 knots
Clouds
  • Few at 400' AGL
  • Broken at 700' AGL
  • Broken at 1,000' AGL
Conditions
  • Rain
Temperature Dewpoint
7°C / 45°F 7°C / 45°F
Humidity Altimeter Pressure
100% 29.56" Hg 1001 hPa